logo
Rechercher aéroport 
image banner adimage banner adimage banner ad
image banner ad

CN44 - Flying Bull

Situé à Modesto, United States

ICAO - CN44, IATA -

Données fournies par Airmate  

Information générale

Coordonnées: N37°37'14" W121°9'47"
Élévation : 40 feet MSL.
Variation magnétique : 15° East
Voir autres Aéroports à California

Données opérationnelles

Special qualification required
Heure actuelle UTC:
Heure actuelle locale:
METAR: KMOD 060253Z 25003KT 10SM CLR 09/08 A3000 RMK AO2 SLP158 T00890083 53003
TAF: KMOD 081139Z 0812/0912 VRB05KT 1/2SM FG SKC TEMPO 0814/0817 1/4SM FG OVC003 FM081800 14007KT P6SM OVC050 FM090300 14009KT 6SM -RA BR OVC050 FM091000 14007KT 4SM BR OVC025
Voir NOTAMs / SUP AIP / TFR affectant cet aéroport [VIEW]
Fréquences de communication: [VIEW]

Pistes:

Identifiant RWYQFULongueur (ft)Largeur (ft)SurfaceLDA (ft)
021800100GRASS
201800100GRASS

Coordonnées de l'aéroport

Adresse: Modesto United States

Vue satellite de CN44